sensor_id;sensor_type;location;lat;lon;timestamp;pressure;altitude;pressure_sealevel;temperature;humidity
63907;BME280;50075;49.484;11.238;2023-12-20T00:01:08;97846.22;;;5.66;100.00
63907;BME280;50075;49.484;11.238;2023-12-20T00:03:33;97849.72;;;5.68;100.00
63907;BME280;50075;49.484;11.238;2023-12-20T00:05:58;97845.28;;;5.59;100.00
63907;BME280;50075;49.484;11.238;2023-12-20T00:08:24;97843.63;;;5.64;100.00
63907;BME280;50075;49.484;11.238;2023-12-20T00:10:49;97839.44;;;5.72;100.00
63907;BME280;50075;49.484;11.238;2023-12-20T00:13:15;97847.44;;;5.93;100.00
63907;BME280;50075;49.484;11.238;2023-12-20T00:15:40;97846.41;;;5.78;100.00
63907;BME280;50075;49.484;11.238;2023-12-20T00:18:05;97843.78;;;5.75;100.00
63907;BME280;50075;49.484;11.238;2023-12-20T00:20:31;97842.16;;;5.80;100.00
63907;BME280;50075;49.484;11.238;2023-12-20T00:22:57;97840.34;;;5.78;100.00
63907;BME280;50075;49.484;11.238;2023-12-20T00:25:23;97830.88;;;5.75;100.00
63907;BME280;50075;49.484;11.238;2023-12-20T00:27:49;97824.97;;;5.84;100.00
63907;BME280;50075;49.484;11.238;2023-12-20T00:30:14;97825.00;;;5.85;100.00
63907;BME280;50075;49.484;11.238;2023-12-20T00:32:39;97819.84;;;5.87;100.00
63907;BME280;50075;49.484;11.238;2023-12-20T00:35:11;97812.13;;;5.90;100.00
63907;BME280;50075;49.484;11.238;2023-12-20T00:37:37;97815.81;;;6.06;100.00
63907;BME280;50075;49.484;11.238;2023-12-20T00:40:02;97811.56;;;6.10;100.00
63907;BME280;50075;49.484;11.238;2023-12-20T00:42:28;97800.44;;;6.19;100.00
63907;BME280;50075;49.484;11.238;2023-12-20T00:44:53;97808.31;;;6.28;100.00
63907;BME280;50075;49.484;11.238;2023-12-20T00:54:28;97795.50;;;6.41;100.00
63907;BME280;50075;49.484;11.238;2023-12-20T00:56:55;97794.69;;;6.43;100.00
63907;BME280;50075;49.484;11.238;2023-12-20T00:59:21;97793.00;;;6.47;100.00
63907;BME280;50075;49.484;11.238;2023-12-20T01:01:46;97796.38;;;6.40;100.00
63907;BME280;50075;49.484;11.238;2023-12-20T01:04:11;97793.03;;;6.50;100.00
63907;BME280;50075;49.484;11.238;2023-12-20T01:06:37;97785.38;;;6.59;100.00
63907;BME280;50075;49.484;11.238;2023-12-20T01:09:02;97787.00;;;6.51;100.00
63907;BME280;50075;49.484;11.238;2023-12-20T01:11:28;97786.31;;;6.69;100.00
63907;BME280;50075;49.484;11.238;2023-12-20T01:13:53;97790.63;;;6.70;100.00
63907;BME280;50075;49.484;11.238;2023-12-20T01:16:18;97786.34;;;6.72;100.00
63907;BME280;50075;49.484;11.238;2023-12-20T01:18:43;97788.91;;;6.68;100.00
63907;BME280;50075;49.484;11.238;2023-12-20T01:21:09;97791.63;;;6.85;100.00
63907;BME280;50075;49.484;11.238;2023-12-20T01:23:34;97787.25;;;6.77;100.00
63907;BME280;50075;49.484;11.238;2023-12-20T01:25:59;97787.38;;;6.95;100.00
63907;BME280;50075;49.484;11.238;2023-12-20T01:28:25;97789.03;;;6.85;100.00
63907;BME280;50075;49.484;11.238;2023-12-20T01:30:51;97780.44;;;6.84;100.00
63907;BME280;50075;49.484;11.238;2023-12-20T01:33:16;97780.38;;;6.81;100.00
63907;BME280;50075;49.484;11.238;2023-12-20T01:35:41;97783.75;;;6.74;100.00
63907;BME280;50075;49.484;11.238;2023-12-20T01:38:06;97777.78;;;6.78;100.00
63907;BME280;50075;49.484;11.238;2023-12-20T01:40:32;97782.22;;;6.95;100.00
63907;BME280;50075;49.484;11.238;2023-12-20T01:43:15;97778.56;;;6.68;100.00
63907;BME280;50075;49.484;11.238;2023-12-20T01:45:41;97770.88;;;6.77;100.00
63907;BME280;50075;49.484;11.238;2023-12-20T01:48:07;97774.38;;;6.84;100.00
63907;BME280;50075;49.484;11.238;2023-12-20T01:50:35;97767.44;;;6.78;100.00
63907;BME280;50075;49.484;11.238;2023-12-20T01:53:02;97769.16;;;6.81;100.00
63907;BME280;50075;49.484;11.238;2023-12-20T01:55:31;97764.97;;;6.94;100.00
63907;BME280;50075;49.484;11.238;2023-12-20T01:57:57;97761.53;;;6.95;100.00
63907;BME280;50075;49.484;11.238;2023-12-20T02:00:23;97765.66;;;6.74;100.00
63907;BME280;50075;49.484;11.238;2023-12-20T02:02:52;97762.22;;;6.70;100.00
63907;BME280;50075;49.484;11.238;2023-12-20T02:05:18;97764.81;;;6.75;100.00
63907;BME280;50075;49.484;11.238;2023-12-20T02:07:43;97764.06;;;6.90;100.00
63907;BME280;50075;49.484;11.238;2023-12-20T02:10:09;97760.66;;;6.91;100.00
63907;BME280;50075;49.484;11.238;2023-12-20T02:12:34;97763.00;;;6.64;100.00
63907;BME280;50075;49.484;11.238;2023-12-20T02:15:00;97763.13;;;6.79;100.00
63907;BME280;50075;49.484;11.238;2023-12-20T02:17:27;97757.88;;;6.66;100.00
63907;BME280;50075;49.484;11.238;2023-12-20T02:19:52;97761.13;;;6.43;100.00
63907;BME280;50075;49.484;11.238;2023-12-20T02:22:18;97757.69;;;6.49;100.00
63907;BME280;50075;49.484;11.238;2023-12-20T02:24:43;97752.44;;;6.36;100.00
63907;BME280;50075;49.484;11.238;2023-12-20T02:27:08;97749.94;;;6.49;100.00
63907;BME280;50075;49.484;11.238;2023-12-20T02:29:35;97748.19;;;6.46;100.00
63907;BME280;50075;49.484;11.238;2023-12-20T02:32:00;97747.47;;;6.61;100.00
63907;BME280;50075;49.484;11.238;2023-12-20T02:34:26;97754.06;;;6.30;100.00
63907;BME280;50075;49.484;11.238;2023-12-20T02:36:51;97758.50;;;6.45;100.00
63907;BME280;50075;49.484;11.238;2023-12-20T02:39:18;97750.69;;;6.32;100.00
63907;BME280;50075;49.484;11.238;2023-12-20T02:41:44;97747.09;;;6.21;100.00
63907;BME280;50075;49.484;11.238;2023-12-20T02:44:09;97744.50;;;6.19;100.00
63907;BME280;50075;49.484;11.238;2023-12-20T02:46:35;97747.13;;;6.22;100.00
63907;BME280;50075;49.484;11.238;2023-12-20T02:49:00;97744.53;;;6.21;100.00
63907;BME280;50075;49.484;11.238;2023-12-20T02:51:25;97748.03;;;6.28;100.00
63907;BME280;50075;49.484;11.238;2023-12-20T02:53:51;97753.94;;;6.14;100.00
63907;BME280;50075;49.484;11.238;2023-12-20T02:56:16;97754.75;;;6.10;100.00
63907;BME280;50075;49.484;11.238;2023-12-20T02:58:41;97748.91;;;6.28;100.00
63907;BME280;50075;49.484;11.238;2023-12-20T03:01:07;97759.38;;;6.44;100.00
63907;BME280;50075;49.484;11.238;2023-12-20T03:03:32;97755.22;;;6.58;100.00
63907;BME280;50075;49.484;11.238;2023-12-20T03:05:58;97762.19;;;6.69;100.00
63907;BME280;50075;49.484;11.238;2023-12-20T03:08:23;97761.31;;;6.68;100.00
63907;BME280;50075;49.484;11.238;2023-12-20T03:10:48;97758.81;;;6.79;100.00
63907;BME280;50075;49.484;11.238;2023-12-20T03:13:14;97757.84;;;6.64;100.00
63907;BME280;50075;49.484;11.238;2023-12-20T03:15:39;97758.50;;;6.45;100.00
63907;BME280;50075;49.484;11.238;2023-12-20T03:18:05;97748.38;;;6.67;100.00
63907;BME280;50075;49.484;11.238;2023-12-20T03:20:30;97740.53;;;6.57;100.00
63907;BME280;50075;49.484;11.238;2023-12-20T03:22:59;97749.00;;;6.37;100.00
63907;BME280;50075;49.484;11.238;2023-12-20T03:25:24;97750.63;;;6.28;100.00
63907;BME280;50075;49.484;11.238;2023-12-20T03:27:49;97746.34;;;6.33;100.00
63907;BME280;50075;49.484;11.238;2023-12-20T03:30:15;97757.66;;;6.43;100.00
63907;BME280;50075;49.484;11.238;2023-12-20T03:32:40;97762.81;;;6.43;100.00
63907;BME280;50075;49.484;11.238;2023-12-20T03:35:06;97761.44;;;5.97;100.00
63907;BME280;50075;49.484;11.238;2023-12-20T03:37:31;97764.03;;;5.97;100.00
63907;BME280;50075;49.484;11.238;2023-12-20T03:39:56;97764.03;;;5.97;100.00
63907;BME280;50075;49.484;11.238;2023-12-20T03:42:22;97763.38;;;6.14;100.00
63907;BME280;50075;49.484;11.238;2023-12-20T03:44:47;97765.88;;;6.04;100.00
63907;BME280;50075;49.484;11.238;2023-12-20T03:47:12;97768.34;;;5.99;100.00
63907;BME280;50075;49.484;11.238;2023-12-20T03:49:38;97763.88;;;5.83;100.00
63907;BME280;50075;49.484;11.238;2023-12-20T03:52:04;97767.53;;;6.02;100.00
63907;BME280;50075;49.484;11.238;2023-12-20T03:54:29;97767.56;;;6.04;100.00
63907;BME280;50075;49.484;11.238;2023-12-20T03:56:55;97765.03;;;6.07;100.00
63907;BME280;50075;49.484;11.238;2023-12-20T03:59:20;97768.22;;;5.89;100.00
63907;BME280;50075;49.484;11.238;2023-12-20T04:01:45;97774.22;;;5.83;100.00
63907;BME280;50075;49.484;11.238;2023-12-20T04:04:11;97769.16;;;5.92;100.00
63907;BME280;50075;49.484;11.238;2023-12-20T04:06:37;97767.41;;;5.90;100.00
63907;BME280;50075;49.484;11.238;2023-12-20T04:09:03;97767.25;;;5.77;100.00
63907;BME280;50075;49.484;11.238;2023-12-20T04:11:28;97771.56;;;5.80;100.00
63907;BME280;50075;49.484;11.238;2023-12-20T04:13:53;97767.97;;;5.67;100.00
63907;BME280;50075;49.484;11.238;2023-12-20T04:16:19;97769.72;;;5.68;100.00
63907;BME280;50075;49.484;11.238;2023-12-20T04:18:44;97771.97;;;6.12;100.00
63907;BME280;50075;49.484;11.238;2023-12-20T04:21:10;97775.16;;;5.93;100.00
63907;BME280;50075;49.484;11.238;2023-12-20T04:23:35;97769.00;;;5.80;100.00
63907;BME280;50075;49.484;11.238;2023-12-20T04:26:00;97769.09;;;5.88;100.00
63907;BME280;50075;49.484;11.238;2023-12-20T04:28:26;97774.22;;;5.84;100.00
63907;BME280;50075;49.484;11.238;2023-12-20T04:30:51;97766.47;;;5.84;100.00
63907;BME280;50075;49.484;11.238;2023-12-20T04:33:16;97767.53;;;6.02;100.00
63907;BME280;50075;49.484;11.238;2023-12-20T04:35:42;97763.28;;;6.04;100.00
63907;BME280;50075;49.484;11.238;2023-12-20T04:38:08;97768.34;;;5.99;100.00
63907;BME280;50075;49.484;11.238;2023-12-20T04:40:34;97761.38;;;5.89;100.00
63907;BME280;50075;49.484;11.238;2023-12-20T04:42:59;97764.91;;;5.97;100.00
63907;BME280;50075;49.484;11.238;2023-12-20T04:45:24;97766.97;;;5.55;100.00
63907;BME280;50075;49.484;11.238;2023-12-20T04:47:51;97761.25;;;5.80;100.00
63907;BME280;50075;49.484;11.238;2023-12-20T04:50:16;97772.59;;;5.91;100.00
63907;BME280;50075;49.484;11.238;2023-12-20T04:52:42;97777.78;;;5.96;100.00
63907;BME280;50075;49.484;11.238;2023-12-20T04:55:07;97773.31;;;5.81;100.00
63907;BME280;50075;49.484;11.238;2023-12-20T04:57:34;97770.69;;;5.76;100.00
63907;BME280;50075;49.484;11.238;2023-12-20T04:59:59;97768.13;;;5.81;100.00
63907;BME280;50075;49.484;11.238;2023-12-20T05:02:25;97777.63;;;5.82;100.00
63907;BME280;50075;49.484;11.238;2023-12-20T05:04:50;97776.50;;;5.63;100.00
63907;BME280;50075;49.484;11.238;2023-12-20T05:07:16;97786.00;;;5.64;100.00
63907;BME280;50075;49.484;11.238;2023-12-20T05:09:41;97789.63;;;5.78;100.00
63907;BME280;50075;49.484;11.238;2023-12-20T05:12:07;97783.66;;;5.82;100.00
63907;BME280;50075;49.484;11.238;2023-12-20T05:14:32;97786.84;;;5.63;100.00
63907;BME280;50075;49.484;11.238;2023-12-20T05:16:58;97790.44;;;5.74;100.00
63907;BME280;50075;49.484;11.238;2023-12-20T05:19:23;97797.78;;;5.44;100.00
63907;BME280;50075;49.484;11.238;2023-12-20T05:21:49;97798.84;;;5.59;100.00
63907;BME280;50075;49.484;11.238;2023-12-20T05:24:14;97811.16;;;5.82;100.00
63907;BME280;50075;49.484;11.238;2023-12-20T05:26:40;97805.06;;;5.75;100.00
63907;BME280;50075;49.484;11.238;2023-12-20T05:29:05;97804.28;;;5.81;100.00
63907;BME280;50075;49.484;11.238;2023-12-20T05:31:31;97804.31;;;5.84;100.00
63907;BME280;50075;49.484;11.238;2023-12-20T05:33:56;97821.34;;;5.71;100.00
63907;BME280;50075;49.484;11.238;2023-12-20T05:36:22;97823.16;;;5.77;100.00
63907;BME280;50075;49.484;11.238;2023-12-20T05:38:47;97826.56;;;5.74;100.00
63907;BME280;50075;49.484;11.238;2023-12-20T05:41:12;97832.41;;;5.60;100.00
63907;BME280;50075;49.484;11.238;2023-12-20T05:43:38;97826.47;;;5.66;100.00
63907;BME280;50075;49.484;11.238;2023-12-20T05:46:04;97821.19;;;5.60;100.00
63907;BME280;50075;49.484;11.238;2023-12-20T05:48:29;97835.22;;;5.76;100.00
63907;BME280;50075;49.484;11.238;2023-12-20T05:50:55;97823.09;;;5.73;100.00
63907;BME280;50075;49.484;11.238;2023-12-20T05:53:20;97818.75;;;5.71;100.00
63907;BME280;50075;49.484;11.238;2023-12-20T05:55:45;97834.19;;;5.65;100.00
63907;BME280;50075;49.484;11.238;2023-12-20T05:58:11;97833.03;;;5.44;100.00
63907;BME280;50075;49.484;11.238;2023-12-20T06:00:36;97840.06;;;5.56;100.00
63907;BME280;50075;49.484;11.238;2023-12-20T06:03:01;97833.41;;;5.73;100.00
63907;BME280;50075;49.484;11.238;2023-12-20T06:05:27;97830.69;;;5.63;100.00
63907;BME280;50075;49.484;11.238;2023-12-20T06:07:52;97837.47;;;5.56;100.00
63907;BME280;50075;49.484;11.238;2023-12-20T06:10:18;97833.19;;;5.55;100.00
63907;BME280;50075;49.484;11.238;2023-12-20T06:12:43;97828.94;;;5.60;100.00
63907;BME280;50075;49.484;11.238;2023-12-20T06:15:09;97830.69;;;5.59;100.00
63907;BME280;50075;49.484;11.238;2023-12-20T06:17:34;97831.53;;;5.58;100.00
63907;BME280;50075;49.484;11.238;2023-12-20T06:20:00;97833.19;;;5.55;100.00
63907;BME280;50075;49.484;11.238;2023-12-20T06:22:26;97842.00;;;5.69;100.00
63907;BME280;50075;49.484;11.238;2023-12-20T06:24:51;97856.66;;;5.72;100.00
63907;BME280;50075;49.484;11.238;2023-12-20T06:27:16;97862.50;;;5.58;100.00
63907;BME280;50075;49.484;11.238;2023-12-20T06:29:42;97866.13;;;5.73;100.00
63907;BME280;50075;49.484;11.238;2023-12-20T06:32:09;97875.66;;;5.77;100.00
63907;BME280;50075;49.484;11.238;2023-12-20T06:34:35;97872.78;;;5.57;100.00
63907;BME280;50075;49.484;11.238;2023-12-20T06:37:00;97870.84;;;5.42;100.00
63907;BME280;50075;49.484;11.238;2023-12-20T06:39:25;97870.56;;;5.25;100.00
63907;BME280;50075;49.484;11.238;2023-12-20T06:41:51;97872.13;;;5.15;100.00
63907;BME280;50075;49.484;11.238;2023-12-20T06:44:16;97874.50;;;5.02;100.00
63907;BME280;50075;49.484;11.238;2023-12-20T06:46:42;97877.72;;;4.90;100.00
63907;BME280;50075;49.484;11.238;2023-12-20T06:49:07;97879.22;;;5.87;100.00
63907;BME280;50075;49.484;11.238;2023-12-20T06:51:32;97874.94;;;7.57;100.00
63907;BME280;50075;49.484;11.238;2023-12-20T06:53:58;97875.44;;;5.63;100.00
63907;BME280;50075;49.484;11.238;2023-12-20T06:56:25;97879.41;;;5.39;100.00
63907;BME280;50075;49.484;11.238;2023-12-20T06:58:50;97881.91;;;5.34;100.00
63907;BME280;50075;49.484;11.238;2023-12-20T07:01:15;97887.00;;;5.31;100.00
63907;BME280;50075;49.484;11.238;2023-12-20T07:03:41;97886.94;;;5.27;100.00
63907;BME280;50075;49.484;11.238;2023-12-20T07:06:07;97895.63;;;5.33;100.00
63907;BME280;50075;49.484;11.238;2023-12-20T07:08:33;97891.31;;;5.31;100.00
63907;BME280;50075;49.484;11.238;2023-12-20T07:10:58;97911.75;;;5.20;100.00
63907;BME280;50075;49.484;11.238;2023-12-20T07:13:24;97924.88;;;5.36;100.00
63907;BME280;50075;49.484;11.238;2023-12-20T07:15:50;97929.19;;;5.37;100.00
63907;BME280;50075;49.484;11.238;2023-12-20T07:18:15;97924.97;;;5.40;100.00
63907;BME280;50075;49.484;11.238;2023-12-20T07:20:42;97929.31;;;5.43;100.00
63907;BME280;50075;49.484;11.238;2023-12-20T07:23:08;97935.53;;;5.54;100.00
63907;BME280;50075;49.484;11.238;2023-12-20T07:25:34;97941.59;;;5.58;100.00
63907;BME280;50075;49.484;11.238;2023-12-20T07:27:59;97933.06;;;5.62;100.00
63907;BME280;50075;49.484;11.238;2023-12-20T07:30:24;97937.56;;;5.76;100.00
63907;BME280;50075;49.484;11.238;2023-12-20T07:32:50;97945.22;;;5.69;100.00
63907;BME280;50075;49.484;11.238;2023-12-20T07:35:16;97951.00;;;5.54;100.00
63907;BME280;50075;49.484;11.238;2023-12-20T07:37:41;97944.50;;;5.80;100.00
63907;BME280;50075;49.484;11.238;2023-12-20T07:40:07;97948.78;;;5.79;100.00
63907;BME280;50075;49.484;11.238;2023-12-20T07:42:32;97945.22;;;5.69;100.00
63907;BME280;50075;49.484;11.238;2023-12-20T07:44:58;97951.38;;;5.79;100.00
63907;BME280;50075;49.484;11.238;2023-12-20T07:47:23;97948.00;;;5.85;100.00
63907;BME280;50075;49.484;11.238;2023-12-20T07:49:50;97948.13;;;5.93;100.00
63907;BME280;50075;49.484;11.238;2023-12-20T07:52:17;97953.22;;;5.86;100.00
63907;BME280;50075;49.484;11.238;2023-12-20T07:54:43;97956.84;;;6.01;100.00
63907;BME280;50075;49.484;11.238;2023-12-20T07:57:10;97961.81;;;5.85;100.00
63907;BME280;50075;49.484;11.238;2023-12-20T07:59:36;97961.00;;;5.90;100.00
63907;BME280;50075;49.484;11.238;2023-12-20T08:02:01;97956.16;;;6.10;100.00
63907;BME280;50075;49.484;11.238;2023-12-20T08:04:26;97963.78;;;6.04;100.00
63907;BME280;50075;49.484;11.238;2023-12-20T08:06:52;97958.06;;;6.23;100.00
63907;BME280;50075;49.484;11.238;2023-12-20T08:09:18;97955.34;;;6.14;100.00
63907;BME280;50075;49.484;11.238;2023-12-20T08:11:45;97964.88;;;6.18;100.00
63907;BME280;50075;49.484;11.238;2023-12-20T08:14:11;97969.97;;;6.14;100.00
63907;BME280;50075;49.484;11.238;2023-12-20T08:16:36;97968.28;;;6.16;100.00
63907;BME280;50075;49.484;11.238;2023-12-20T08:19:01;97972.53;;;6.10;100.00
63907;BME280;50075;49.484;11.238;2023-12-20T08:21:27;97961.28;;;6.07;100.00
63907;BME280;50075;49.484;11.238;2023-12-20T08:23:52;97963.94;;;6.11;100.00
63907;BME280;50075;49.484;11.238;2023-12-20T08:26:21;97967.44;;;6.17;100.00
63907;BME280;50075;49.484;11.238;2023-12-20T08:28:50;97963.88;;;6.08;100.00
63907;BME280;50075;49.484;11.238;2023-12-20T08:31:16;97969.00;;;6.07;100.00
63907;BME280;50075;49.484;11.238;2023-12-20T08:33:46;97966.59;;;6.18;100.00
63907;BME280;50075;49.484;11.238;2023-12-20T08:36:12;97963.00;;;6.06;100.00
63907;BME280;50075;49.484;11.238;2023-12-20T08:38:38;97965.75;;;6.20;100.00
63907;BME280;50075;49.484;11.238;2023-12-20T08:41:03;97954.69;;;6.29;100.00
63907;BME280;50075;49.484;11.238;2023-12-20T08:43:33;97967.78;;;6.42;100.00
63907;BME280;50075;49.484;11.238;2023-12-20T08:45:59;97959.88;;;6.31;100.00
63907;BME280;50075;49.484;11.238;2023-12-20T08:48:25;97961.09;;;6.59;100.00
63907;BME280;50075;49.484;11.238;2023-12-20T08:50:50;97963.66;;;6.58;100.00
63907;BME280;50075;49.484;11.238;2023-12-20T08:53:17;97953.53;;;6.73;100.00
63907;BME280;50075;49.484;11.238;2023-12-20T08:55:43;97967.38;;;6.82;100.00
63907;BME280;50075;49.484;11.238;2023-12-20T08:58:08;97962.22;;;6.80;100.00
63907;BME280;50075;49.484;11.238;2023-12-20T09:00:34;97965.50;;;6.68;100.00
63907;BME280;50075;49.484;11.238;2023-12-20T09:03:01;97962.31;;;6.89;100.00
63907;BME280;50075;49.484;11.238;2023-12-20T09:05:26;97954.25;;;6.63;100.00
63907;BME280;50075;49.484;11.238;2023-12-20T09:07:51;97950.94;;;6.76;100.00
63907;BME280;50075;49.484;11.238;2023-12-20T09:10:17;97955.38;;;6.85;100.00
63907;BME280;50075;49.484;11.238;2023-12-20T09:12:50;97972.59;;;6.85;100.00
63907;BME280;50075;49.484;11.238;2023-12-20T09:15:16;97972.66;;;6.93;100.00
63907;BME280;50075;49.484;11.238;2023-12-20T09:17:41;97980.78;;;7.25;100.00
63907;BME280;50075;49.484;11.238;2023-12-20T09:20:07;97979.28;;;7.52;100.00
63907;BME280;50075;49.484;11.238;2023-12-20T09:22:33;97979.22;;;7.43;100.00
63907;BME280;50075;49.484;11.238;2023-12-20T09:24:59;97974.56;;;7.06;100.00
63907;BME280;50075;49.484;11.238;2023-12-20T09:27:25;97988.56;;;7.28;100.00
63907;BME280;50075;49.484;11.238;2023-12-20T09:29:50;97973.25;;;7.53;100.00
63907;BME280;50075;49.484;11.238;2023-12-20T09:32:15;97968.06;;;7.52;100.00
63907;BME280;50075;49.484;11.238;2023-12-20T09:34:41;97965.47;;;7.47;100.00
63907;BME280;50075;49.484;11.238;2023-12-20T09:37:07;97962.78;;;7.39;100.00
63907;BME280;50075;49.484;11.238;2023-12-20T09:39:33;97974.09;;;7.49;100.00
63907;BME280;50075;49.484;11.238;2023-12-20T09:44:28;97974.75;;;7.26;100.00
63907;BME280;50075;49.484;11.238;2023-12-20T09:46:55;97968.09;;;7.55;100.00
63907;BME280;50075;49.484;11.238;2023-12-20T09:49:21;97971.44;;;7.41;100.00
63907;BME280;50075;49.484;11.238;2023-12-20T09:51:47;97980.06;;;7.42;100.00
63907;BME280;50075;49.484;11.238;2023-12-20T09:54:20;97979.09;;;7.29;100.00
63907;BME280;50075;49.484;11.238;2023-12-20T09:56:46;97979.38;;;7.63;100.00
63907;BME280;50075;49.484;11.238;2023-12-20T09:59:12;97973.59;;;7.99;100.00
63907;BME280;50075;49.484;11.238;2023-12-20T10:01:40;97976.97;;;6.21;100.00
63907;BME280;50075;49.484;11.238;2023-12-20T10:04:07;97983.13;;;5.75;100.00
63907;BME280;50075;49.484;11.238;2023-12-20T10:06:35;97979.50;;;5.62;100.00
63907;BME280;50075;49.484;11.238;2023-12-20T10:09:01;97984.09;;;5.28;100.00
63907;BME280;50075;49.484;11.238;2023-12-20T10:11:26;97989.13;;;5.21;100.00
63907;BME280;50075;49.484;11.238;2023-12-20T10:14:01;97977.28;;;5.33;100.00
63907;BME280;50075;49.484;11.238;2023-12-20T10:16:27;97979.53;;;5.13;100.00
63907;BME280;50075;49.484;11.238;2023-12-20T10:18:53;97979.81;;;5.28;100.00
63907;BME280;50075;49.484;11.238;2023-12-20T10:21:19;97980.16;;;5.49;100.00
63907;BME280;50075;49.484;11.238;2023-12-20T10:23:45;97977.41;;;5.39;100.00
63907;BME280;50075;49.484;11.238;2023-12-20T10:26:19;97973.28;;;5.51;100.00
63907;BME280;50075;49.484;11.238;2023-12-20T10:28:45;97968.34;;;5.65;100.00
63907;BME280;50075;49.484;11.238;2023-12-20T10:31:10;97974.44;;;6.24;100.00
63907;BME280;50075;49.484;11.238;2023-12-20T10:33:36;97963.09;;;6.84;100.00
63907;BME280;50075;49.484;11.238;2023-12-20T10:36:01;97957.94;;;6.85;100.00
63907;BME280;50075;49.484;11.238;2023-12-20T10:38:28;97960.66;;;6.98;100.00
63907;BME280;50075;49.484;11.238;2023-12-20T10:40:57;97958.13;;;7.02;100.00
63907;BME280;50075;49.484;11.238;2023-12-20T10:43:28;97962.44;;;7.02;100.00
63907;BME280;50075;49.484;11.238;2023-12-20T10:45:54;97949.41;;;6.91;100.00
63907;BME280;50075;49.484;11.238;2023-12-20T10:48:19;97951.38;;;7.15;100.00
63907;BME280;50075;49.484;11.238;2023-12-20T10:50:47;97947.84;;;7.07;100.00
63907;BME280;50075;49.484;11.238;2023-12-20T10:53:13;97946.72;;;6.85;100.00
63907;BME280;50075;49.484;11.238;2023-12-20T10:55:39;97940.88;;;7.01;100.00
63907;BME280;50075;49.484;11.238;2023-12-20T10:58:09;97944.47;;;7.14;100.00
63907;BME280;50075;49.484;11.238;2023-12-20T11:00:40;97938.63;;;7.37;100.00
63907;BME280;50075;49.484;11.238;2023-12-20T11:03:11;97937.91;;;7.57;100.00
63907;BME280;50075;49.484;11.238;2023-12-20T11:05:50;97938.69;;;7.47;100.00
63907;BME280;50075;49.484;11.238;2023-12-20T11:08:52;97943.53;;;7.09;100.00
63907;BME280;50075;49.484;11.238;2023-12-20T11:11:38;97933.06;;;6.98;100.00
63907;BME280;50075;49.484;11.238;2023-12-20T11:14:17;97922.72;;;6.97;100.00
63907;BME280;50075;49.484;11.238;2023-12-20T11:16:45;97927.06;;;6.99;100.00
63907;BME280;50075;49.484;11.238;2023-12-20T11:19:11;97922.19;;;7.32;100.00
63907;BME280;50075;49.484;11.238;2023-12-20T11:21:39;97922.31;;;7.48;100.00
63907;BME280;50075;49.484;11.238;2023-12-20T11:24:05;97924.91;;;7.49;100.00
63907;BME280;50075;49.484;11.238;2023-12-20T11:26:30;97930.44;;;8.02;100.00
63907;BME280;50075;49.484;11.238;2023-12-20T11:29:35;97911.47;;;8.00;100.00
63907;BME280;50075;49.484;11.238;2023-12-20T11:32:28;97906.41;;;8.24;100.00
63907;BME280;50075;49.484;11.238;2023-12-20T11:35:00;97900.41;;;8.43;100.00
63907;BME280;50075;49.484;11.238;2023-12-20T11:37:35;97903.66;;;7.95;100.00
63907;BME280;50075;49.484;11.238;2023-12-20T11:40:02;97907.13;;;8.02;100.00
63907;BME280;50075;49.484;11.238;2023-12-20T11:42:33;97908.59;;;7.60;100.00
63907;BME280;50075;49.484;11.238;2023-12-20T11:44:59;97913.13;;;7.92;100.00
63907;BME280;50075;49.484;11.238;2023-12-20T11:47:25;97908.88;;;8.03;100.00
63907;BME280;50075;49.484;11.238;2023-12-20T11:49:51;97915.53;;;7.65;100.00
63907;BME280;50075;49.484;11.238;2023-12-20T11:52:16;97901.75;;;7.69;100.00
63907;BME280;50075;49.484;11.238;2023-12-20T11:54:42;97899.44;;;8.15;100.00
63907;BME280;50075;49.484;11.238;2023-12-20T11:57:07;97902.78;;;7.98;100.00
63907;BME280;50075;49.484;11.238;2023-12-20T11:59:32;97902.94;;;8.26;100.00
63907;BME280;50075;49.484;11.238;2023-12-20T12:01:58;97915.59;;;7.72;100.00
63907;BME280;50075;49.484;11.238;2023-12-20T12:04:26;97912.22;;;7.85;100.00
63907;BME280;50075;49.484;11.238;2023-12-20T12:06:52;97916.34;;;7.55;100.00
63907;BME280;50075;49.484;11.238;2023-12-20T12:09:17;97921.44;;;7.44;100.00
63907;BME280;50075;49.484;11.238;2023-12-20T12:11:43;97919.97;;;7.82;100.00
63907;BME280;50075;49.484;11.238;2023-12-20T12:14:08;97903.78;;;8.22;100.00
63907;BME280;50075;49.484;11.238;2023-12-20T12:16:34;97895.06;;;8.04;100.00
63907;BME280;50075;49.484;11.238;2023-12-20T12:18:59;97887.47;;;8.40;100.00
63907;BME280;50075;49.484;11.238;2023-12-20T12:21:25;97902.09;;;8.23;100.00
63907;BME280;50075;49.484;11.238;2023-12-20T12:23:51;97902.09;;;8.23;100.00
63907;BME280;50075;49.484;11.238;2023-12-20T12:26:16;97895.09;;;8.06;100.00
63907;BME280;50075;49.484;11.238;2023-12-20T12:28:42;97899.41;;;8.08;100.00
63907;BME280;50075;49.484;11.238;2023-12-20T12:31:09;97897.59;;;7.93;100.00
63907;BME280;50075;49.484;11.238;2023-12-20T12:33:38;97902.88;;;8.11;100.00
63907;BME280;50075;49.484;11.238;2023-12-20T12:36:03;97890.19;;;8.78;100.00
63907;BME280;50075;49.484;11.238;2023-12-20T12:38:32;97892.44;;;7.93;100.00
63907;BME280;50075;49.484;11.238;2023-12-20T12:40:57;97881.19;;;7.94;100.00
63907;BME280;50075;49.484;11.238;2023-12-20T12:43:23;97877.09;;;8.40;100.00
63907;BME280;50075;49.484;11.238;2023-12-20T12:45:49;97879.78;;;8.65;100.00
63907;BME280;50075;49.484;11.238;2023-12-20T12:48:15;97879.81;;;8.79;100.00
63907;BME280;50075;49.484;11.238;2023-12-20T12:50:40;97879.84;;;9.09;100.00
63907;BME280;50075;49.484;11.238;2023-12-20T12:53:05;97869.47;;;8.85;100.00
63907;BME280;50075;49.484;11.238;2023-12-20T12:55:31;97864.09;;;8.29;100.00